sensor_id;sensor_type;location;lat;lon;timestamp;temperature;humidity
3005;DHT22;1512;51.486;6.610;2022-10-16T00:00:27;13.50;99.90
3005;DHT22;1512;51.486;6.610;2022-10-16T00:04:36;13.40;99.90
3005;DHT22;1512;51.486;6.610;2022-10-16T00:08:45;13.40;99.90
3005;DHT22;1512;51.486;6.610;2022-10-16T00:12:54;13.30;99.90
3005;DHT22;1512;51.486;6.610;2022-10-16T00:17:02;13.30;99.90
3005;DHT22;1512;51.486;6.610;2022-10-16T00:21:14;13.30;99.90
3005;DHT22;1512;51.486;6.610;2022-10-16T00:25:23;13.30;99.90
3005;DHT22;1512;51.486;6.610;2022-10-16T00:29:31;13.30;99.90
3005;DHT22;1512;51.486;6.610;2022-10-16T00:33:41;13.30;99.90
3005;DHT22;1512;51.486;6.610;2022-10-16T00:37:49;13.30;99.90
3005;DHT22;1512;51.486;6.610;2022-10-16T00:41:58;13.30;99.90
3005;DHT22;1512;51.486;6.610;2022-10-16T00:46:15;13.30;99.90
3005;DHT22;1512;51.486;6.610;2022-10-16T00:50:32;13.30;99.90
3005;DHT22;1512;51.486;6.610;2022-10-16T00:54:41;13.30;99.90
3005;DHT22;1512;51.486;6.610;2022-10-16T00:58:50;13.30;99.90
3005;DHT22;1512;51.486;6.610;2022-10-16T01:03:01;13.30;99.90
3005;DHT22;1512;51.486;6.610;2022-10-16T01:16:04;13.30;99.90
3005;DHT22;1512;51.486;6.610;2022-10-16T01:20:11;13.20;99.90
3005;DHT22;1512;51.486;6.610;2022-10-16T01:24:31;13.20;99.90
3005;DHT22;1512;51.486;6.610;2022-10-16T01:28:57;13.10;99.90
3005;DHT22;1512;51.486;6.610;2022-10-16T01:33:18;13.10;99.90
3005;DHT22;1512;51.486;6.610;2022-10-16T01:41:50;13.20;99.90
3005;DHT22;1512;51.486;6.610;2022-10-16T01:46:00;13.20;99.90
3005;DHT22;1512;51.486;6.610;2022-10-16T01:50:09;13.20;99.90
3005;DHT22;1512;51.486;6.610;2022-10-16T01:54:19;13.20;99.90
3005;DHT22;1512;51.486;6.610;2022-10-16T01:58:29;13.20;99.90
3005;DHT22;1512;51.486;6.610;2022-10-16T02:02:42;13.20;99.90
3005;DHT22;1512;51.486;6.610;2022-10-16T02:06:52;13.20;99.90
3005;DHT22;1512;51.486;6.610;2022-10-16T02:11:01;13.10;99.90
3005;DHT22;1512;51.486;6.610;2022-10-16T02:15:11;13.00;99.90
3005;DHT22;1512;51.486;6.610;2022-10-16T02:19:21;13.00;99.90
3005;DHT22;1512;51.486;6.610;2022-10-16T02:23:51;13.00;99.90
3005;DHT22;1512;51.486;6.610;2022-10-16T02:28:07;13.00;99.90
3005;DHT22;1512;51.486;6.610;2022-10-16T02:32:19;12.90;99.90
3005;DHT22;1512;51.486;6.610;2022-10-16T02:36:47;12.90;99.90
3005;DHT22;1512;51.486;6.610;2022-10-16T02:40:57;12.90;99.90
3005;DHT22;1512;51.486;6.610;2022-10-16T02:45:07;12.90;99.90
3005;DHT22;1512;51.486;6.610;2022-10-16T02:49:16;12.90;99.90
3005;DHT22;1512;51.486;6.610;2022-10-16T02:53:25;12.90;99.90
3005;DHT22;1512;51.486;6.610;2022-10-16T02:57:34;12.90;99.90
3005;DHT22;1512;51.486;6.610;2022-10-16T03:01:44;12.80;99.90
3005;DHT22;1512;51.486;6.610;2022-10-16T03:05:53;12.80;99.90
3005;DHT22;1512;51.486;6.610;2022-10-16T03:10:02;12.90;99.90
3005;DHT22;1512;51.486;6.610;2022-10-16T03:14:11;12.90;99.90
3005;DHT22;1512;51.486;6.610;2022-10-16T03:18:19;12.90;99.90
3005;DHT22;1512;51.486;6.610;2022-10-16T03:22:28;12.90;99.90
3005;DHT22;1512;51.486;6.610;2022-10-16T03:26:37;12.90;99.90
3005;DHT22;1512;51.486;6.610;2022-10-16T03:30:45;12.90;99.90
3005;DHT22;1512;51.486;6.610;2022-10-16T03:34:54;12.80;99.90
3005;DHT22;1512;51.486;6.610;2022-10-16T03:39:03;12.80;99.90
3005;DHT22;1512;51.486;6.610;2022-10-16T03:43:13;12.80;99.90
3005;DHT22;1512;51.486;6.610;2022-10-16T03:47:22;12.80;99.90
3005;DHT22;1512;51.486;6.610;2022-10-16T03:51:31;12.80;99.90
3005;DHT22;1512;51.486;6.610;2022-10-16T03:55:44;12.90;99.90
3005;DHT22;1512;51.486;6.610;2022-10-16T03:59:52;12.90;99.90
3005;DHT22;1512;51.486;6.610;2022-10-16T04:04:01;12.90;99.90
3005;DHT22;1512;51.486;6.610;2022-10-16T04:08:10;12.90;99.90
3005;DHT22;1512;51.486;6.610;2022-10-16T04:12:18;12.90;99.90
3005;DHT22;1512;51.486;6.610;2022-10-16T04:16:27;12.90;99.90
3005;DHT22;1512;51.486;6.610;2022-10-16T04:20:41;12.90;99.90
3005;DHT22;1512;51.486;6.610;2022-10-16T04:24:50;12.90;99.90
3005;DHT22;1512;51.486;6.610;2022-10-16T04:28:58;12.90;99.90
3005;DHT22;1512;51.486;6.610;2022-10-16T04:33:09;12.90;99.90
3005;DHT22;1512;51.486;6.610;2022-10-16T04:37:17;12.90;99.90
3005;DHT22;1512;51.486;6.610;2022-10-16T04:41:26;12.90;99.90
3005;DHT22;1512;51.486;6.610;2022-10-16T04:45:35;12.90;99.90
3005;DHT22;1512;51.486;6.610;2022-10-16T04:49:43;12.80;99.90
3005;DHT22;1512;51.486;6.610;2022-10-16T04:53:52;12.90;99.90
3005;DHT22;1512;51.486;6.610;2022-10-16T04:58:00;12.90;99.90
3005;DHT22;1512;51.486;6.610;2022-10-16T05:02:09;12.90;99.90
3005;DHT22;1512;51.486;6.610;2022-10-16T05:06:37;12.90;99.90
3005;DHT22;1512;51.486;6.610;2022-10-16T05:10:46;12.80;99.90
3005;DHT22;1512;51.486;6.610;2022-10-16T05:14:54;12.90;99.90
3005;DHT22;1512;51.486;6.610;2022-10-16T05:19:05;12.80;99.90
3005;DHT22;1512;51.486;6.610;2022-10-16T05:27:36;12.80;99.90
3005;DHT22;1512;51.486;6.610;2022-10-16T05:31:44;12.80;99.90
3005;DHT22;1512;51.486;6.610;2022-10-16T05:35:53;12.90;99.90
3005;DHT22;1512;51.486;6.610;2022-10-16T05:40:02;12.90;99.90
3005;DHT22;1512;51.486;6.610;2022-10-16T05:44:12;12.80;99.90
3005;DHT22;1512;51.486;6.610;2022-10-16T05:48:21;12.80;99.90
3005;DHT22;1512;51.486;6.610;2022-10-16T05:52:30;12.80;99.90
3005;DHT22;1512;51.486;6.610;2022-10-16T05:56:38;12.80;99.90
3005;DHT22;1512;51.486;6.610;2022-10-16T06:00:55;12.80;99.90
3005;DHT22;1512;51.486;6.610;2022-10-16T06:05:23;12.70;99.90
3005;DHT22;1512;51.486;6.610;2022-10-16T06:09:31;12.70;99.90
3005;DHT22;1512;51.486;6.610;2022-10-16T06:13:40;12.70;99.90
3005;DHT22;1512;51.486;6.610;2022-10-16T06:17:50;12.70;99.90
3005;DHT22;1512;51.486;6.610;2022-10-16T06:21:58;12.70;99.90
3005;DHT22;1512;51.486;6.610;2022-10-16T06:26:10;12.70;99.90
3005;DHT22;1512;51.486;6.610;2022-10-16T06:30:38;12.70;99.90
3005;DHT22;1512;51.486;6.610;2022-10-16T06:34:46;12.70;99.90
3005;DHT22;1512;51.486;6.610;2022-10-16T06:38:55;12.80;99.90
3005;DHT22;1512;51.486;6.610;2022-10-16T06:43:04;12.80;99.90
3005;DHT22;1512;51.486;6.610;2022-10-16T06:47:12;12.80;99.90
3005;DHT22;1512;51.486;6.610;2022-10-16T06:51:22;12.80;99.90
3005;DHT22;1512;51.486;6.610;2022-10-16T06:55:31;12.80;99.90
3005;DHT22;1512;51.486;6.610;2022-10-16T06:59:40;12.80;99.90
3005;DHT22;1512;51.486;6.610;2022-10-16T07:03:50;12.80;99.90
3005;DHT22;1512;51.486;6.610;2022-10-16T07:07:59;12.80;99.90
3005;DHT22;1512;51.486;6.610;2022-10-16T07:12:07;12.80;99.90
3005;DHT22;1512;51.486;6.610;2022-10-16T07:16:20;12.80;99.90
3005;DHT22;1512;51.486;6.610;2022-10-16T07:20:30;12.90;99.90
3005;DHT22;1512;51.486;6.610;2022-10-16T07:24:38;12.90;99.90
3005;DHT22;1512;51.486;6.610;2022-10-16T07:28:47;12.90;99.90
3005;DHT22;1512;51.486;6.610;2022-10-16T07:32:56;13.00;99.90
3005;DHT22;1512;51.486;6.610;2022-10-16T07:37:04;13.10;99.90
3005;DHT22;1512;51.486;6.610;2022-10-16T07:41:16;13.10;99.90
3005;DHT22;1512;51.486;6.610;2022-10-16T07:45:25;13.20;99.90
3005;DHT22;1512;51.486;6.610;2022-10-16T07:49:33;13.30;99.90
3005;DHT22;1512;51.486;6.610;2022-10-16T07:53:42;13.40;99.90
3005;DHT22;1512;51.486;6.610;2022-10-16T07:57:50;13.40;99.90
3005;DHT22;1512;51.486;6.610;2022-10-16T08:01:59;13.50;99.90
3005;DHT22;1512;51.486;6.610;2022-10-16T08:06:08;13.60;99.90
3005;DHT22;1512;51.486;6.610;2022-10-16T08:10:18;13.70;99.90
3005;DHT22;1512;51.486;6.610;2022-10-16T08:14:28;13.80;99.90
3005;DHT22;1512;51.486;6.610;2022-10-16T08:18:38;13.90;99.90
3005;DHT22;1512;51.486;6.610;2022-10-16T08:22:47;14.00;99.90
3005;DHT22;1512;51.486;6.610;2022-10-16T08:26:55;14.10;99.90
3005;DHT22;1512;51.486;6.610;2022-10-16T08:31:09;14.30;99.90
3005;DHT22;1512;51.486;6.610;2022-10-16T08:35:18;14.40;99.90
3005;DHT22;1512;51.486;6.610;2022-10-16T08:39:26;14.40;99.90
3005;DHT22;1512;51.486;6.610;2022-10-16T08:44:00;14.60;99.90
3005;DHT22;1512;51.486;6.610;2022-10-16T08:48:13;14.70;99.90
3005;DHT22;1512;51.486;6.610;2022-10-16T08:56:40;14.90;99.90
3005;DHT22;1512;51.486;6.610;2022-10-16T09:00:53;15.00;99.90
3005;DHT22;1512;51.486;6.610;2022-10-16T09:05:02;15.20;99.90
3005;DHT22;1512;51.486;6.610;2022-10-16T09:09:18;15.30;99.90
3005;DHT22;1512;51.486;6.610;2022-10-16T09:13:36;15.40;99.90
3005;DHT22;1512;51.486;6.610;2022-10-16T09:18:10;15.40;99.90
3005;DHT22;1512;51.486;6.610;2022-10-16T09:22:17;15.50;99.90
3005;DHT22;1512;51.486;6.610;2022-10-16T09:26:26;15.50;99.90
3005;DHT22;1512;51.486;6.610;2022-10-16T09:30:35;15.60;99.90
3005;DHT22;1512;51.486;6.610;2022-10-16T09:34:49;15.60;99.90
3005;DHT22;1512;51.486;6.610;2022-10-16T09:39:09;15.70;99.90
3005;DHT22;1512;51.486;6.610;2022-10-16T09:47:32;15.80;99.90
3005;DHT22;1512;51.486;6.610;2022-10-16T09:51:42;16.10;99.90
3005;DHT22;1512;51.486;6.610;2022-10-16T09:55:52;16.30;99.90
3005;DHT22;1512;51.486;6.610;2022-10-16T10:00:04;16.50;99.90
3005;DHT22;1512;51.486;6.610;2022-10-16T10:04:14;16.60;99.90
3005;DHT22;1512;51.486;6.610;2022-10-16T10:08:23;16.70;99.90
3005;DHT22;1512;51.486;6.610;2022-10-16T10:12:33;16.70;99.90
3005;DHT22;1512;51.486;6.610;2022-10-16T10:16:44;16.80;99.90
3005;DHT22;1512;51.486;6.610;2022-10-16T10:21:01;17.00;99.90
3005;DHT22;1512;51.486;6.610;2022-10-16T10:25:19;17.00;99.90
3005;DHT22;1512;51.486;6.610;2022-10-16T10:30:00;17.10;99.90
3005;DHT22;1512;51.486;6.610;2022-10-16T10:34:33;17.30;99.90
3005;DHT22;1512;51.486;6.610;2022-10-16T10:38:51;17.40;99.90
3005;DHT22;1512;51.486;6.610;2022-10-16T11:01:01;18.00;99.90
3005;DHT22;1512;51.486;6.610;2022-10-16T11:09:51;18.10;99.90
3005;DHT22;1512;51.486;6.610;2022-10-16T11:18:24;17.80;99.90
3005;DHT22;1512;51.486;6.610;2022-10-16T11:22:45;17.70;99.90
3005;DHT22;1512;51.486;6.610;2022-10-16T11:26:54;17.80;99.90
3005;DHT22;1512;51.486;6.610;2022-10-16T11:35:49;18.00;99.90
3005;DHT22;1512;51.486;6.610;2022-10-16T11:40:03;17.90;99.90
3005;DHT22;1512;51.486;6.610;2022-10-16T12:02:38;17.30;99.90
3005;DHT22;1512;51.486;6.610;2022-10-16T12:07:08;17.30;99.90
3005;DHT22;1512;51.486;6.610;2022-10-16T12:15:38;17.30;99.90
3005;DHT22;1512;51.486;6.610;2022-10-16T12:24:38;17.60;99.90
3005;DHT22;1512;51.486;6.610;2022-10-16T12:28:48;17.70;99.90
3005;DHT22;1512;51.486;6.610;2022-10-16T12:33:02;17.60;99.90
3005;DHT22;1512;51.486;6.610;2022-10-16T12:37:33;17.70;99.90
3005;DHT22;1512;51.486;6.610;2022-10-16T12:41:42;17.80;99.90
3005;DHT22;1512;51.486;6.610;2022-10-16T12:46:05;17.80;99.90
3005;DHT22;1512;51.486;6.610;2022-10-16T12:54:37;17.80;99.90
3005;DHT22;1512;51.486;6.610;2022-10-16T12:59:05;17.70;99.90
3005;DHT22;1512;51.486;6.610;2022-10-16T13:30:30;18.40;99.90
3005;DHT22;1512;51.486;6.610;2022-10-16T13:34:46;18.20;99.90
3005;DHT22;1512;51.486;6.610;2022-10-16T13:39:10;18.00;99.90
3005;DHT22;1512;51.486;6.610;2022-10-16T13:43:19;17.90;99.90
3005;DHT22;1512;51.486;6.610;2022-10-16T13:47:29;17.80;99.90
3005;DHT22;1512;51.486;6.610;2022-10-16T13:51:38;17.80;99.90
3005;DHT22;1512;51.486;6.610;2022-10-16T13:55:47;17.80;99.90
3005;DHT22;1512;51.486;6.610;2022-10-16T13:59:55;17.90;99.90
3005;DHT22;1512;51.486;6.610;2022-10-16T14:04:09;18.10;99.90
3005;DHT22;1512;51.486;6.610;2022-10-16T14:08:19;18.00;99.90
3005;DHT22;1512;51.486;6.610;2022-10-16T14:12:28;17.90;99.90
3005;DHT22;1512;51.486;6.610;2022-10-16T14:16:39;17.90;99.90
3005;DHT22;1512;51.486;6.610;2022-10-16T14:20:50;17.80;99.90
3005;DHT22;1512;51.486;6.610;2022-10-16T14:24:59;17.70;99.90
3005;DHT22;1512;51.486;6.610;2022-10-16T14:29:27;17.60;99.90
3005;DHT22;1512;51.486;6.610;2022-10-16T14:33:38;17.60;99.90
3005;DHT22;1512;51.486;6.610;2022-10-16T14:37:46;17.70;99.90
3005;DHT22;1512;51.486;6.610;2022-10-16T14:41:58;17.60;99.90
3005;DHT22;1512;51.486;6.610;2022-10-16T14:46:18;17.60;99.90
3005;DHT22;1512;51.486;6.610;2022-10-16T14:50:28;17.60;99.90
3005;DHT22;1512;51.486;6.610;2022-10-16T14:54:56;17.60;99.90
3005;DHT22;1512;51.486;6.610;2022-10-16T14:59:05;17.50;99.90
3005;DHT22;1512;51.486;6.610;2022-10-16T15:03:14;17.50;99.90
3005;DHT22;1512;51.486;6.610;2022-10-16T15:07:23;17.50;99.90
3005;DHT22;1512;51.486;6.610;2022-10-16T15:11:33;17.50;99.90
3005;DHT22;1512;51.486;6.610;2022-10-16T15:15:46;17.40;99.90
3005;DHT22;1512;51.486;6.610;2022-10-16T15:19:56;17.30;99.90
3005;DHT22;1512;51.486;6.610;2022-10-16T15:24:08;17.30;99.90
3005;DHT22;1512;51.486;6.610;2022-10-16T15:28:19;17.20;99.90
3005;DHT22;1512;51.486;6.610;2022-10-16T15:32:29;17.20;99.90
3005;DHT22;1512;51.486;6.610;2022-10-16T15:36:38;17.20;99.90
3005;DHT22;1512;51.486;6.610;2022-10-16T15:40:48;17.10;99.90
3005;DHT22;1512;51.486;6.610;2022-10-16T15:44:57;17.10;99.90
3005;DHT22;1512;51.486;6.610;2022-10-16T15:49:05;17.10;99.90
3005;DHT22;1512;51.486;6.610;2022-10-16T15:53:14;17.00;99.90
3005;DHT22;1512;51.486;6.610;2022-10-16T15:57:23;17.00;99.90
3005;DHT22;1512;51.486;6.610;2022-10-16T16:01:35;16.90;99.90
3005;DHT22;1512;51.486;6.610;2022-10-16T16:05:44;16.90;99.90
3005;DHT22;1512;51.486;6.610;2022-10-16T16:09:53;16.80;99.90
3005;DHT22;1512;51.486;6.610;2022-10-16T16:14:02;16.70;99.90
3005;DHT22;1512;51.486;6.610;2022-10-16T16:18:10;16.60;99.90
3005;DHT22;1512;51.486;6.610;2022-10-16T16:22:19;16.60;99.90
3005;DHT22;1512;51.486;6.610;2022-10-16T16:26:29;16.50;99.90
3005;DHT22;1512;51.486;6.610;2022-10-16T16:31:02;16.50;99.90
3005;DHT22;1512;51.486;6.610;2022-10-16T16:35:11;16.40;99.90
3005;DHT22;1512;51.486;6.610;2022-10-16T16:39:19;16.40;99.90
3005;DHT22;1512;51.486;6.610;2022-10-16T16:43:28;16.30;99.90
3005;DHT22;1512;51.486;6.610;2022-10-16T16:47:37;16.30;99.90
3005;DHT22;1512;51.486;6.610;2022-10-16T16:51:46;16.20;99.90
3005;DHT22;1512;51.486;6.610;2022-10-16T16:55:54;16.20;99.90
3005;DHT22;1512;51.486;6.610;2022-10-16T17:00:05;16.10;99.90
3005;DHT22;1512;51.486;6.610;2022-10-16T17:04:14;16.00;99.90
3005;DHT22;1512;51.486;6.610;2022-10-16T17:08:23;16.00;99.90
3005;DHT22;1512;51.486;6.610;2022-10-16T17:12:31;15.90;99.90
3005;DHT22;1512;51.486;6.610;2022-10-16T17:16:40;15.90;99.90
3005;DHT22;1512;51.486;6.610;2022-10-16T17:20:52;15.80;99.90
3005;DHT22;1512;51.486;6.610;2022-10-16T17:25:01;15.70;99.90
3005;DHT22;1512;51.486;6.610;2022-10-16T17:33:51;15.70;99.90
3005;DHT22;1512;51.486;6.610;2022-10-16T17:38:20;15.70;99.90
3005;DHT22;1512;51.486;6.610;2022-10-16T17:42:41;15.60;99.90
3005;DHT22;1512;51.486;6.610;2022-10-16T17:47:02;15.60;99.90
3005;DHT22;1512;51.486;6.610;2022-10-16T17:51:38;15.60;99.90
3005;DHT22;1512;51.486;6.610;2022-10-16T17:56:07;15.60;99.90
3005;DHT22;1512;51.486;6.610;2022-10-16T18:00:33;15.60;99.90
3005;DHT22;1512;51.486;6.610;2022-10-16T18:09:38;15.60;99.90
3005;DHT22;1512;51.486;6.610;2022-10-16T18:14:00;15.40;99.90
3005;DHT22;1512;51.486;6.610;2022-10-16T18:18:20;15.40;99.90
3005;DHT22;1512;51.486;6.610;2022-10-16T18:23:12;15.30;99.90
3005;DHT22;1512;51.486;6.610;2022-10-16T18:27:32;15.30;99.90
3005;DHT22;1512;51.486;6.610;2022-10-16T18:32:02;15.30;99.90
3005;DHT22;1512;51.486;6.610;2022-10-16T18:36:33;15.20;99.90
3005;DHT22;1512;51.486;6.610;2022-10-16T18:41:04;15.20;99.90
3005;DHT22;1512;51.486;6.610;2022-10-16T18:45:29;15.30;99.90
3005;DHT22;1512;51.486;6.610;2022-10-16T18:49:41;15.30;99.90
3005;DHT22;1512;51.486;6.610;2022-10-16T18:53:52;15.30;99.90
3005;DHT22;1512;51.486;6.610;2022-10-16T18:58:06;15.30;99.90
3005;DHT22;1512;51.486;6.610;2022-10-16T19:02:16;15.30;99.90
3005;DHT22;1512;51.486;6.610;2022-10-16T19:06:39;15.30;99.90
3005;DHT22;1512;51.486;6.610;2022-10-16T19:10:50;15.30;99.90
3005;DHT22;1512;51.486;6.610;2022-10-16T19:15:03;15.40;99.90
3005;DHT22;1512;51.486;6.610;2022-10-16T19:19:25;15.40;99.90
3005;DHT22;1512;51.486;6.610;2022-10-16T19:23:43;15.30;99.90
3005;DHT22;1512;51.486;6.610;2022-10-16T19:27:54;15.40;99.90
3005;DHT22;1512;51.486;6.610;2022-10-16T19:32:20;15.40;99.90
3005;DHT22;1512;51.486;6.610;2022-10-16T19:36:44;15.40;99.90
3005;DHT22;1512;51.486;6.610;2022-10-16T19:45:47;15.40;99.90
3005;DHT22;1512;51.486;6.610;2022-10-16T19:50:27;15.30;99.90
3005;DHT22;1512;51.486;6.610;2022-10-16T19:54:39;15.40;99.90
3005;DHT22;1512;51.486;6.610;2022-10-16T19:59:21;15.30;99.90
3005;DHT22;1512;51.486;6.610;2022-10-16T20:03:43;15.30;99.90
3005;DHT22;1512;51.486;6.610;2022-10-16T20:08:33;15.30;99.90
3005;DHT22;1512;51.486;6.610;2022-10-16T20:13:08;15.30;99.90
3005;DHT22;1512;51.486;6.610;2022-10-16T20:17:16;15.30;99.90
3005;DHT22;1512;51.486;6.610;2022-10-16T20:21:44;15.30;99.90
3005;DHT22;1512;51.486;6.610;2022-10-16T20:25:53;15.20;99.90
3005;DHT22;1512;51.486;6.610;2022-10-16T20:30:07;15.20;99.90
3005;DHT22;1512;51.486;6.610;2022-10-16T20:43:31;15.20;99.90
3005;DHT22;1512;51.486;6.610;2022-10-16T20:47:44;15.20;99.90
3005;DHT22;1512;51.486;6.610;2022-10-16T20:52:04;15.10;99.90
3005;DHT22;1512;51.486;6.610;2022-10-16T20:56:15;15.10;99.90
3005;DHT22;1512;51.486;6.610;2022-10-16T21:00:52;15.10;99.90
3005;DHT22;1512;51.486;6.610;2022-10-16T21:05:14;15.00;99.90
3005;DHT22;1512;51.486;6.610;2022-10-16T21:09:56;15.00;99.90
3005;DHT22;1512;51.486;6.610;2022-10-16T21:14:11;15.00;99.90
3005;DHT22;1512;51.486;6.610;2022-10-16T21:18:23;15.00;99.90
3005;DHT22;1512;51.486;6.610;2022-10-16T21:23:00;14.90;99.90
3005;DHT22;1512;51.486;6.610;2022-10-16T21:27:42;15.00;99.90
3005;DHT22;1512;51.486;6.610;2022-10-16T21:31:57;14.90;99.90
3005;DHT22;1512;51.486;6.610;2022-10-16T21:36:38;14.90;99.90
3005;DHT22;1512;51.486;6.610;2022-10-16T21:40:58;14.90;99.90
3005;DHT22;1512;51.486;6.610;2022-10-16T21:45:29;14.90;99.90
3005;DHT22;1512;51.486;6.610;2022-10-16T21:49:34;14.90;99.90
3005;DHT22;1512;51.486;6.610;2022-10-16T21:53:57;14.80;99.90
3005;DHT22;1512;51.486;6.610;2022-10-16T21:57:57;14.70;99.90
3005;DHT22;1512;51.486;6.610;2022-10-16T22:02:09;14.70;99.90
3005;DHT22;1512;51.486;6.610;2022-10-16T22:06:22;14.70;99.90
3005;DHT22;1512;51.486;6.610;2022-10-16T22:10:38;14.70;99.90
3005;DHT22;1512;51.486;6.610;2022-10-16T22:14:48;14.60;99.90
3005;DHT22;1512;51.486;6.610;2022-10-16T22:19:04;14.60;99.90
3005;DHT22;1512;51.486;6.610;2022-10-16T22:23:32;14.60;99.90
3005;DHT22;1512;51.486;6.610;2022-10-16T22:27:42;14.50;99.90
3005;DHT22;1512;51.486;6.610;2022-10-16T22:31:56;14.50;99.90
3005;DHT22;1512;51.486;6.610;2022-10-16T22:36:24;14.50;99.90
3005;DHT22;1512;51.486;6.610;2022-10-16T22:40:26;14.50;99.90
3005;DHT22;1512;51.486;6.610;2022-10-16T22:44:44;14.50;99.90
3005;DHT22;1512;51.486;6.610;2022-10-16T22:48:58;14.60;99.90
3005;DHT22;1512;51.486;6.610;2022-10-16T22:53:08;14.50;99.90
3005;DHT22;1512;51.486;6.610;2022-10-16T22:57:23;14.60;99.90
3005;DHT22;1512;51.486;6.610;2022-10-16T23:01:39;14.60;99.90
3005;DHT22;1512;51.486;6.610;2022-10-16T23:05:54;14.60;99.90
3005;DHT22;1512;51.486;6.610;2022-10-16T23:14:38;14.70;99.90
3005;DHT22;1512;51.486;6.610;2022-10-16T23:18:47;14.70;99.90
3005;DHT22;1512;51.486;6.610;2022-10-16T23:23:05;14.70;99.90
3005;DHT22;1512;51.486;6.610;2022-10-16T23:27:18;14.70;99.90
3005;DHT22;1512;51.486;6.610;2022-10-16T23:31:46;14.70;99.90
3005;DHT22;1512;51.486;6.610;2022-10-16T23:35:57;14.80;99.90
3005;DHT22;1512;51.486;6.610;2022-10-16T23:40:24;14.80;99.90
3005;DHT22;1512;51.486;6.610;2022-10-16T23:44:54;14.80;99.90
3005;DHT22;1512;51.486;6.610;2022-10-16T23:49:04;14.80;99.90
3005;DHT22;1512;51.486;6.610;2022-10-16T23:53:24;14.80;99.90
3005;DHT22;1512;51.486;6.610;2022-10-16T23:57:29;14.70;99.90
